TimeMDT,TemperatureF,Dew PointF,Humidity,Sea Level PressureIn,VisibilityMPH,Wind Direction,Wind SpeedMPH,Gust SpeedMPH,PrecipitationIn,Events,Conditions,WindDirDegrees,DateUTC
12:56 AM,35.1,28.9,78,30.01,10.0,SSE,6.9,-,N/A,,Clear,150,2013-10-01 06:56:00
1:56 AM,32.0,26.1,79,30.01,10.0,SSE,5.8,-,N/A,,Clear,150,2013-10-01 07:56:00
2:56 AM,33.1,27.0,78,29.99,10.0,East,5.8,-,N/A,,Clear,80,2013-10-01 08:56:00
3:56 AM,30.9,25.0,79,29.99,10.0,SE,8.1,-,N/A,,Clear,140,2013-10-01 09:56:00
4:56 AM,37.0,25.0,62,29.99,10.0,Calm,Calm,-,N/A,,Clear,0,2013-10-01 10:56:00
5:56 AM,32.0,25.0,75,30.00,10.0,SE,5.8,-,N/A,,Clear,140,2013-10-01 11:56:00
6:56 AM,32.0,25.0,75,30.01,10.0,Variable,3.5,-,N/A,,Clear,0,2013-10-01 12:56:00
7:56 AM,28.9,25.0,85,30.05,10.0,SSE,6.9,-,N/A,,Clear,160,2013-10-01 13:56:00
8:56 AM,35.1,28.0,76,30.02,10.0,SE,4.6,-,N/A,,Clear,130,2013-10-01 14:56:00
9:56 AM,41.0,32.0,70,30.02,10.0,SSE,3.5,-,N/A,,Clear,150,2013-10-01 15:56:00
10:56 AM,48.9,32.0,52,30.01,10.0,NNE,4.6,-,N/A,,Clear,30,2013-10-01 16:56:00
11:56 AM,52.0,30.0,43,29.99,10.0,North,4.6,-,N/A,,Clear,10,2013-10-01 17:56:00
12:56 PM,54.0,27.0,35,29.96,10.0,Calm,Calm,-,N/A,,Clear,0,2013-10-01 18:56:00
1:56 PM,57.0,27.0,32,29.94,10.0,Calm,Calm,-,N/A,,Partly Cloudy,0,2013-10-01 19:56:00
2:56 PM,59.0,28.9,32,29.92,10.0,SSW,6.9,-,N/A,,Overcast,200,2013-10-01 20:56:00
3:38 PM,57.2,33.8,41,29.92,10.0,NNW,10.4,-,N/A,,Mostly Cloudy,330,2013-10-01 21:38:00
3:56 PM,57.9,32.0,37,29.92,10.0,North,8.1,-,N/A,,Mostly Cloudy,350,2013-10-01 21:56:00
4:56 PM,55.9,34.0,44,29.90,10.0,North,9.2,-,N/A,,Mostly Cloudy,350,2013-10-01 22:56:00
5:56 PM,54.0,35.1,49,29.91,10.0,North,5.8,-,N/A,,Overcast,350,2013-10-01 23:56:00
6:56 PM,50.0,35.1,57,29.94,10.0,North,4.6,-,N/A,,Overcast,350,2013-10-02 00:56:00
7:56 PM,48.0,33.1,56,29.98,10.0,NNW,3.5,-,N/A,,Overcast,330,2013-10-02 01:56:00
8:56 PM,48.0,36.0,63,30.00,10.0,West,3.5,-,0.00,,Overcast,270,2013-10-02 02:56:00
9:56 PM,44.1,37.9,79,30.03,10.0,North,9.2,-,0.00,Rain,Light Rain,350,2013-10-02 03:56:00
10:56 PM,44.1,39.0,82,30.02,10.0,NNE,3.5,-,0.01,,Overcast,20,2013-10-02 04:56:00
11:56 PM,43.0,39.0,86,30.04,10.0,NNW,3.5,-,0.00,,Overcast,330,2013-10-02 05:56:00